KHRT

Hurlburt Field Airport

Mary Esther, Florida, USA
METAR KHRT 280004Z 04010G16KT 10SM FEW100 OVC220 25/22 A2972 RMK RAE04 SLP066 $
Observed Flight Rules
May-28 @ 00:04 UTC (an hour ago) Visual Flight Rules
Wind Visibility Clouds
40° at 10 knots
 Gusting to 16 knots
10 miles
  • Few at 10,000' AGL
  • Overcast at 22,000' AGL
Temperatures Readings
Current 25°C / 77°F
Dewpoint 22°C / 72°F
Humidity 83%
Altimeter 29.72" Hg
Pressure 1006.6 hPa
Elevation 12
METAR KHRT 280004Z 04010G16KT 10SM FEW100 OVC220 25/22 A2972 RMK RAE04 SLP066 $
Observed Flight Rules
May-28 @ 00:04 UTC
(an hour ago)
VFR
Wind Visibility
40° at 10 knots
 Gusting to 16 knots
10 miles
Clouds
  • Few at 10,000' AGL
  • Overcast at 22,000' AGL
Temperature Dewpoint
25°C / 77°F 22°C / 72°F
Humidity Altimeter Pressure
83% 29.72" Hg 1006.6 hPa